Time;durP1;ratioP1;P1;durP2;ratioP2;P2;SDS_P1;SDS_P2;PMS_P1;PMS_P2;Temp;Humidity;BMP_temperature;BMP_pressure;BME280_temperature;BME280_humidity;BME280_pressure;Samples;Min_cycle;Max_cycle;Signal;HPM_P1;HPM_P2
2022/09/11 00:01:32;;;;;;;2.85;1.02;;;18.10;96.70;;;;;;5054323;28;20223;-86
2022/09/11 00:04:03;;;;;;;2.42;0.70;;;18.20;96.00;;;;;;5054360;28;20279;-86
2022/09/11 00:06:34;;;;;;;1.20;0.60;;;18.20;96.90;;;;;;5054212;28;20659;-86
2022/09/11 00:09:07;;;;;;;1.13;0.60;;;18.20;97.40;;;;;;5061229;28;20220;-86
2022/09/11 00:11:41;;;;;;;1.38;0.70;;;18.40;97.00;;;;;;5069127;28;20200;-86
2022/09/11 00:14:15;;;;;;;0.73;0.55;;;18.40;96.40;;;;;;5054795;28;20200;-87
2022/09/11 00:16:47;;;;;;;2.05;0.73;;;18.50;96.10;;;;;;5073649;28;20401;-87
2022/09/11 00:19:20;;;;;;;3.28;0.90;;;18.50;93.40;;;;;;5073671;28;20192;-87
2022/09/11 00:21:51;;;;;;;3.35;0.90;;;18.60;92.90;;;;;;5056978;28;20200;-87
2022/09/11 00:24:23;;;;;;;1.73;0.60;;;18.70;92.80;;;;;;5066945;28;20310;-88
2022/09/11 00:26:54;;;;;;;1.58;0.60;;;18.80;90.80;;;;;;5056954;28;20205;-87
2022/09/11 00:29:27;;;;;;;1.90;0.50;;;18.90;90.30;;;;;;5072405;28;20573;-88
2022/09/11 00:31:58;;;;;;;3.38;0.88;;;18.90;88.60;;;;;;5072873;28;20196;-88
2022/09/11 00:34:29;;;;;;;2.03;0.70;;;18.90;85.30;;;;;;5064659;28;20242;-88
2022/09/11 00:37:00;;;;;;;1.05;0.60;;;18.90;84.20;;;;;;5067260;28;20646;-87
2022/09/11 00:39:31;;;;;;;3.85;0.80;;;18.90;84.70;;;;;;5066116;28;20260;-87
2022/09/11 00:42:02;;;;;;;2.40;0.70;;;18.90;82.10;;;;;;5057774;28;20201;-87
2022/09/11 00:45:03;;;;;;;4.20;0.82;;;18.70;81.70;;;;;;5061680;28;20234;-85
2022/09/11 00:47:35;;;;;;;1.60;0.55;;;18.70;84.20;;;;;;5065211;28;20291;-85
2022/09/11 00:50:16;;;;;;;2.50;0.90;;;18.70;83.50;;;;;;5057549;28;20249;-87
2022/09/11 00:52:55;;;;;;;1.65;0.70;;;18.90;83.80;;;;;;5071808;28;20654;-87
2022/09/11 00:55:29;;;;;;;4.07;0.80;;;19.20;87.80;;;;;;5082295;28;20195;-90
2022/09/11 00:58:02;;;;;;;1.05;0.57;;;19.30;83.40;;;;;;5076459;28;20224;-88
2022/09/11 01:00:35;;;;;;;3.67;0.63;;;19.50;83.10;;;;;;5070086;28;20184;-89
2022/09/11 01:03:07;;;;;;;1.65;0.75;;;19.70;80.10;;;;;;5078492;28;20184;-90
2022/09/11 01:05:40;;;;;;;1.55;0.52;;;19.70;82.10;;;;;;5077837;28;20212;-90
2022/09/11 01:08:13;;;;;;;1.60;0.80;;;20.00;80.00;;;;;;5077943;28;20233;-90
2022/09/11 01:10:55;;;;;;;3.20;0.85;;;19.90;77.70;;;;;;5072162;28;20192;-89
2022/09/11 01:13:36;;;;;;;2.20;0.95;;;19.90;77.50;;;;;;5075285;28;20203;-88
2022/09/11 01:16:17;;;;;;;1.63;0.70;;;19.90;79.00;;;;;;5075431;28;20234;-88
2022/09/11 01:18:56;;;;;;;2.80;0.77;;;19.90;74.90;;;;;;5067817;28;20207;-86
2022/09/11 01:22:01;;;;;;;1.98;0.80;;;20.10;72.80;;;;;;5066916;28;20191;-86
2022/09/11 01:24:51;;;;;;;1.92;0.60;;;20.10;67.60;;;;;;5051943;28;20208;-87
2022/09/11 01:27:53;;;;;;;1.65;0.60;;;20.10;68.70;;;;;;5062023;28;20200;-83
2022/09/11 01:30:26;;;;;;;2.17;0.70;;;20.20;68.20;;;;;;5072196;28;20202;-86
2022/09/11 01:33:16;;;;;;;0.45;0.45;;;20.30;66.10;;;;;;5063221;28;20200;-87
2022/09/11 01:35:57;;;;;;;1.33;0.50;;;20.30;65.90;;;;;;5071683;28;20195;-86
2022/09/11 01:38:35;;;;;;;1.45;0.60;;;20.40;63.80;;;;;;5066860;28;20281;-87
2022/09/11 01:41:11;;;;;;;1.95;0.70;;;20.30;61.90;;;;;;5051098;28;20541;-83
2022/09/11 01:43:50;;;;;;;1.42;0.60;;;20.30;59.00;;;;;;5052285;28;20213;-86
2022/09/11 01:46:23;;;;;;;1.77;0.50;;;20.20;60.90;;;;;;5067736;28;20184;-87
2022/09/11 01:49:00;;;;;;;0.93;0.50;;;20.40;60.10;;;;;;5066262;28;20200;-85
2022/09/11 01:51:34;;;;;;;0.93;0.52;;;20.60;61.40;;;;;;5066023;28;20215;-84
2022/09/11 01:54:08;;;;;;;1.40;1.05;;;20.90;59.70;;;;;;5066584;28;20252;-84
2022/09/11 01:56:43;;;;;;;1.33;0.80;;;21.00;59.00;;;;;;5070084;28;20229;-84
2022/09/11 01:59:20;;;;;;;1.33;0.63;;;20.90;58.50;;;;;;5066188;28;20746;-87
2022/09/11 02:01:52;;;;;;;2.03;0.50;;;21.00;58.60;;;;;;5056986;28;20195;-84
2022/09/11 02:04:28;;;;;;;1.45;0.70;;;20.90;56.00;;;;;;5070658;28;20246;-85
2022/09/11 02:07:05;;;;;;;1.67;0.80;;;21.00;56.20;;;;;;5069643;28;20535;-82
2022/09/11 02:09:45;;;;;;;0.73;0.73;;;21.30;56.80;;;;;;5066989;28;20286;-83
2022/09/11 02:12:21;;;;;;;2.08;0.50;;;21.20;53.20;;;;;;5068261;28;20196;-85
2022/09/11 02:14:54;;;;;;;2.50;1.00;;;21.20;53.70;;;;;;5070061;28;20262;-85
2022/09/11 02:17:34;;;;;;;2.10;0.82;;;21.30;54.40;;;;;;5071090;28;20223;-86
2022/09/11 02:20:06;;;;;;;1.52;0.70;;;21.40;54.00;;;;;;5071032;28;20196;-84
2022/09/11 02:22:37;;;;;;;1.40;0.90;;;21.70;55.20;;;;;;5066873;28;20204;-84
2022/09/11 02:25:08;;;;;;;2.58;0.70;;;21.70;51.20;;;;;;5070286;28;20208;-86
2022/09/11 02:27:39;;;;;;;1.17;0.55;;;21.70;50.60;;;;;;5071057;28;20192;-85
2022/09/11 02:30:14;;;;;;;0.93;0.60;;;21.60;48.30;;;;;;5069683;28;20204;-86
2022/09/11 02:32:46;;;;;;;1.45;0.73;;;21.40;46.60;;;;;;5053364;28;20658;-85
2022/09/11 02:35:19;;;;;;;1.25;0.60;;;21.40;47.00;;;;;;5071648;28;20208;-88
2022/09/11 02:37:58;;;;;;;1.63;0.75;;;21.50;49.90;;;;;;5059182;28;20782;-87
2022/09/11 02:40:49;;;;;;;3.13;1.75;;;21.40;49.50;;;;;;5066504;28;20187;-88
2022/09/11 02:43:37;;;;;;;2.97;1.85;;;21.60;47.60;;;;;;5064180;28;20196;-88
2022/09/11 02:46:28;;;;;;;1.20;0.70;;;21.70;47.40;;;;;;5051503;28;20650;-88
2022/09/11 02:49:08;;;;;;;1.67;0.80;;;21.80;46.60;;;;;;5049995;28;20281;-88
2022/09/11 02:51:48;;;;;;;1.63;0.73;;;21.90;48.40;;;;;;5053341;28;20253;-86
2022/09/11 02:54:25;;;;;;;1.55;0.70;;;22.10;47.40;;;;;;5049532;28;20970;-87
2022/09/11 02:57:04;;;;;;;1.80;0.70;;;22.00;47.00;;;;;;5050876;28;20226;-85
2022/09/11 02:59:38;;;;;;;0.73;0.45;;;22.00;45.80;;;;;;5049690;28;20287;-86
2022/09/11 03:02:14;;;;;;;1.67;0.50;;;22.00;46.00;;;;;;5050689;28;20263;-85
2022/09/11 03:04:45;;;;;;;2.25;0.60;;;21.90;45.30;;;;;;5059412;28;20205;-87
2022/09/11 03:07:16;;;;;;;0.63;0.50;;;21.90;44.40;;;;;;5070990;28;20199;-86
2022/09/11 03:09:48;;;;;;;1.13;0.90;;;21.80;45.70;;;;;;5070762;28;20192;-86
2022/09/11 03:12:19;;;;;;;1.27;0.68;;;21.90;46.00;;;;;;5065420;28;20199;-86
2022/09/11 03:14:50;;;;;;;1.33;0.65;;;22.00;45.70;;;;;;5050179;28;20595;-86
2022/09/11 03:17:23;;;;;;;1.65;0.75;;;22.20;46.70;;;;;;5047310;28;20235;-83
2022/09/11 03:19:53;;;;;;;2.08;0.95;;;22.30;46.10;;;;;;5048196;28;20222;-84
2022/09/11 03:22:24;;;;;;;1.38;0.60;;;22.20;45.00;;;;;;5050358;28;20666;-83
2022/09/11 03:24:55;;;;;;;4.07;0.85;;;22.40;47.30;;;;;;5061944;28;20203;-84
2022/09/11 03:27:26;;;;;;;1.88;0.60;;;22.40;42.50;;;;;;5052122;28;20582;-85
2022/09/11 03:29:57;;;;;;;1.98;1.00;;;22.40;43.30;;;;;;5047473;28;20209;-84
2022/09/11 03:32:33;;;;;;;1.58;0.90;;;22.40;42.60;;;;;;5048881;28;20291;-84
2022/09/11 03:35:04;;;;;;;3.35;0.70;;;22.30;42.50;;;;;;5048103;28;20203;-85
2022/09/11 03:37:34;;;;;;;2.00;0.82;;;22.40;42.90;;;;;;5050040;28;20722;-82
2022/09/11 03:40:06;;;;;;;1.90;1.00;;;22.30;45.60;;;;;;5046928;28;20228;-84
2022/09/11 03:42:37;;;;;;;1.58;0.60;;;22.50;45.60;;;;;;5046945;28;20571;-87
2022/09/11 03:45:08;;;;;;;4.13;0.95;;;22.70;45.20;;;;;;5047923;28;20231;-88
2022/09/11 03:47:43;;;;;;;1.17;0.60;;;22.50;41.60;;;;;;5046719;28;20201;-82
2022/09/11 03:50:15;;;;;;;0.63;0.40;;;22.40;40.00;;;;;;5047207;28;20631;-85
2022/09/11 03:52:46;;;;;;;2.28;1.23;;;22.40;40.30;;;;;;5048994;28;20193;-85
2022/09/11 03:55:17;;;;;;;0.80;0.60;;;22.40;40.70;;;;;;5047656;28;20205;-85
2022/09/11 03:57:48;;;;;;;0.95;0.52;;;22.40;41.90;;;;;;5045389;28;20225;-82
2022/09/11 04:00:21;;;;;;;1.15;0.63;;;22.50;41.90;;;;;;5045797;28;20196;-82
2022/09/11 04:02:55;;;;;;;2.10;0.70;;;22.50;42.50;;;;;;5046751;28;21083;-84
2022/09/11 04:05:26;;;;;;;1.30;0.50;;;22.60;41.10;;;;;;5051910;28;20196;-84
2022/09/11 04:07:58;;;;;;;1.88;0.80;;;22.70;41.80;;;;;;5049663;28;20697;-84
2022/09/11 04:10:29;;;;;;;1.55;0.63;;;22.70;40.80;;;;;;5052373;28;20303;-84
2022/09/11 04:13:00;;;;;;;1.10;0.60;;;22.40;41.80;;;;;;5054605;28;20666;-83
2022/09/11 04:15:31;;;;;;;1.77;0.80;;;22.50;42.00;;;;;;5059433;28;20192;-83
2022/09/11 04:18:07;;;;;;;1.20;0.50;;;22.20;41.30;;;;;;5054418;28;20266;-85
2022/09/11 04:20:41;;;;;;;1.25;0.85;;;22.30;43.10;;;;;;5050672;28;20206;-84
2022/09/11 04:23:13;;;;;;;2.25;0.70;;;22.40;42.60;;;;;;5052395;28;20192;-85
2022/09/11 04:25:44;;;;;;;1.27;0.50;;;22.40;41.60;;;;;;5051664;28;20197;-84
2022/09/11 04:28:15;;;;;;;1.10;0.90;;;22.40;41.00;;;;;;5054857;28;20189;-82
2022/09/11 04:30:46;;;;;;;2.88;0.93;;;22.40;42.00;;;;;;5053202;28;20200;-84
2022/09/11 04:33:20;;;;;;;2.08;0.60;;;22.40;43.20;;;;;;5049855;28;20204;-84
2022/09/11 04:35:51;;;;;;;2.03;0.60;;;22.40;41.90;;;;;;5055268;28;20192;-85
2022/09/11 04:38:22;;;;;;;1.20;0.70;;;22.30;41.60;;;;;;5050931;28;20235;-84
2022/09/11 04:40:53;;;;;;;0.95;0.50;;;22.30;43.00;;;;;;5046126;28;20200;-84
2022/09/11 04:43:24;;;;;;;1.85;0.60;;;22.30;42.30;;;;;;5050290;28;20197;-84
2022/09/11 04:46:01;;;;;;;1.27;0.60;;;22.30;43.00;;;;;;5049090;28;20229;-85
2022/09/11 04:48:34;;;;;;;0.80;0.50;;;22.20;43.40;;;;;;5049408;28;20207;-84
2022/09/11 04:51:07;;;;;;;1.00;0.50;;;22.30;44.10;;;;;;5048461;28;20243;-83
2022/09/11 04:53:38;;;;;;;1.10;0.60;;;22.30;44.80;;;;;;5051630;28;20188;-86
2022/09/11 04:56:13;;;;;;;2.03;0.68;;;22.30;43.70;;;;;;5051264;28;20211;-84
2022/09/11 04:58:45;;;;;;;1.17;0.80;;;22.30;44.10;;;;;;5048986;28;20216;-84
2022/09/11 05:01:17;;;;;;;1.58;0.60;;;22.30;44.50;;;;;;5047732;28;20196;-84
2022/09/11 05:03:49;;;;;;;1.08;0.60;;;22.40;45.00;;;;;;5049063;28;20565;-85
2022/09/11 05:06:21;;;;;;;0.73;0.40;;;22.40;44.10;;;;;;5049972;28;21141;-84
2022/09/11 05:08:52;;;;;;;1.58;0.73;;;22.50;44.60;;;;;;5049140;28;20245;-84
2022/09/11 05:11:24;;;;;;;1.40;0.60;;;22.40;44.40;;;;;;5052590;28;20194;-85
2022/09/11 05:13:57;;;;;;;0.80;0.50;;;22.40;44.60;;;;;;5050175;28;20230;-85
2022/09/11 05:16:29;;;;;;;1.20;0.57;;;22.50;44.40;;;;;;5049254;28;20211;-83
2022/09/11 05:19:02;;;;;;;2.40;0.60;;;22.50;45.20;;;;;;5044080;28;20239;-84
2022/09/11 05:21:37;;;;;;;2.65;0.82;;;22.60;46.20;;;;;;5048725;28;20646;-83
2022/09/11 05:24:08;;;;;;;2.53;0.88;;;22.60;52.70;;;;;;5048011;28;20273;-85
2022/09/11 05:26:40;;;;;;;5.82;0.95;;;22.50;56.60;;;;;;5049814;28;20280;-85
2022/09/11 05:29:13;;;;;;;6.28;1.13;;;22.30;58.50;;;;;;5048950;28;20965;-84
2022/09/11 05:31:44;;;;;;;3.50;1.00;;;21.80;65.60;;;;;;5053147;28;20611;-85
2022/09/11 05:34:16;;;;;;;4.10;1.00;;;21.80;71.90;;;;;;5064547;28;20191;-83
2022/09/11 05:36:47;;;;;;;3.40;1.08;;;21.70;75.90;;;;;;5049546;28;20227;-86
2022/09/11 05:39:18;;;;;;;3.78;1.10;;;21.70;75.70;;;;;;5050590;28;20243;-86
2022/09/11 05:41:51;;;;;;;2.63;0.90;;;21.60;76.30;;;;;;5050405;28;20197;-86
2022/09/11 05:44:25;;;;;;;4.70;1.10;;;21.70;76.20;;;;;;5047526;28;20196;-85
2022/09/11 05:46:57;;;;;;;1.20;0.70;;;21.60;78.00;;;;;;5044821;28;20837;-84
2022/09/11 05:49:30;;;;;;;2.38;0.90;;;21.60;79.90;;;;;;5045413;28;23278;-84
2022/09/11 05:52:01;;;;;;;5.32;1.10;;;21.60;80.80;;;;;;5048196;28;20554;-83
2022/09/11 05:54:32;;;;;;;4.63;0.80;;;21.70;81.70;;;;;;5048695;28;20215;-84
2022/09/11 05:57:03;;;;;;;3.08;0.90;;;21.60;81.70;;;;;;5047485;28;20193;-84
2022/09/11 05:59:34;;;;;;;3.65;0.90;;;21.60;82.20;;;;;;5047559;28;20200;-85
2022/09/11 06:02:05;;;;;;;2.25;0.93;;;21.70;82.30;;;;;;5048159;28;20195;-84
2022/09/11 06:04:38;;;;;;;3.22;0.95;;;21.90;81.40;;;;;;5049520;28;20239;-85
2022/09/11 06:07:09;;;;;;;2.28;0.82;;;21.80;83.50;;;;;;5047417;28;20197;-84
2022/09/11 06:09:40;;;;;;;1.02;0.60;;;21.80;82.70;;;;;;5053251;28;20575;-85
2022/09/11 06:12:11;;;;;;;3.35;1.00;;;22.00;82.80;;;;;;5047716;28;20594;-84
2022/09/11 06:14:43;;;;;;;3.25;0.82;;;22.20;81.30;;;;;;5051682;28;20200;-84
2022/09/11 06:17:14;;;;;;;1.80;0.82;;;22.20;81.60;;;;;;5051149;28;20205;-83
2022/09/11 06:19:46;;;;;;;1.25;0.70;;;22.20;80.70;;;;;;5047812;28;20290;-83
2022/09/11 06:22:17;;;;;;;1.55;0.80;;;22.10;82.80;;;;;;5051695;28;20196;-92
2022/09/11 06:24:48;;;;;;;3.90;1.00;;;22.30;82.60;;;;;;5045641;28;20283;-82
2022/09/11 06:27:19;;;;;;;4.72;1.13;;;22.40;81.60;;;;;;5045884;28;20204;-82
2022/09/11 06:29:49;;;;;;;3.70;1.10;;;22.40;80.90;;;;;;5045596;28;20192;-82
2022/09/11 06:32:21;;;;;;;3.15;1.10;;;22.50;80.90;;;;;;5045811;28;20226;-83
2022/09/11 06:34:55;;;;;;;2.03;0.85;;;22.50;81.10;;;;;;5051765;28;20235;-85
2022/09/11 06:37:26;;;;;;;3.65;0.70;;;22.60;82.30;;;;;;5030818;28;20254;-85
2022/09/11 06:39:58;;;;;;;1.75;0.73;;;22.60;81.80;;;;;;5048812;28;20733;-84
2022/09/11 06:42:29;;;;;;;4.50;0.90;;;22.80;79.00;;;;;;5047197;28;20208;-85
2022/09/11 06:45:01;;;;;;;1.92;0.88;;;22.70;79.50;;;;;;5048815;28;20290;-85
2022/09/11 06:47:32;;;;;;;1.92;0.90;;;22.70;79.60;;;;;;5046624;28;20204;-85
2022/09/11 06:50:05;;;;;;;4.43;0.90;;;22.80;79.60;;;;;;5046842;28;20237;-86
2022/09/11 06:52:37;;;;;;;1.85;0.75;;;22.80;78.90;;;;;;5047802;28;20203;-85
2022/09/11 06:55:12;;;;;;;2.40;0.85;;;22.70;79.60;;;;;;5048874;28;20195;-85
2022/09/11 06:57:43;;;;;;;1.65;0.90;;;22.60;78.80;;;;;;5046743;28;20280;-85
2022/09/11 07:00:14;;;;;;;4.90;1.00;;;22.40;80.20;;;;;;5047632;28;20580;-87
2022/09/11 07:02:45;;;;;;;2.50;0.90;;;22.10;82.40;;;;;;5047560;28;20197;-85
2022/09/11 07:05:18;;;;;;;2.05;0.70;;;21.70;85.20;;;;;;5047959;28;20204;-84
2022/09/11 07:07:49;;;;;;;1.42;0.80;;;21.40;88.30;;;;;;5048551;28;20601;-84
2022/09/11 07:10:20;;;;;;;3.22;0.93;;;21.30;90.20;;;;;;5048607;28;20279;-84
2022/09/11 07:12:53;;;;;;;3.58;1.02;;;21.10;91.50;;;;;;5046966;28;20208;-83
2022/09/11 07:15:24;;;;;;;3.72;1.20;;;20.90;92.70;;;;;;5049435;28;20215;-83
2022/09/11 07:17:55;;;;;;;4.78;1.10;;;20.70;95.10;;;;;;5049334;28;20224;-83
2022/09/11 07:20:28;;;;;;;3.30;1.70;;;20.50;97.30;;;;;;5062877;28;20211;-83
2022/09/11 07:22:59;;;;;;;4.22;1.75;;;20.30;99.90;;;;;;5056614;28;20204;-83
2022/09/11 07:25:30;;;;;;;4.78;1.55;;;20.10;99.90;;;;;;5049586;28;20255;-86
2022/09/11 07:28:01;;;;;;;5.22;1.30;;;20.00;99.90;;;;;;5048374;28;20197;-85
2022/09/11 07:30:32;;;;;;;3.55;1.20;;;19.90;99.90;;;;;;5051358;28;20224;-85
2022/09/11 07:33:02;;;;;;;6.47;1.65;;;19.80;99.90;;;;;;5054775;28;20222;-85
2022/09/11 07:35:39;;;;;;;2.78;1.20;;;19.80;99.90;;;;;;5055060;28;20203;-85
2022/09/11 07:38:11;;;;;;;4.13;1.40;;;19.70;99.90;;;;;;5052188;28;20220;-87
2022/09/11 07:40:42;;;;;;;4.32;2.40;;;19.60;99.90;;;;;;5069521;28;20192;-87
2022/09/11 07:43:14;;;;;;;3.47;1.80;;;19.50;99.90;;;;;;5056137;28;20290;-86
2022/09/11 07:45:48;;;;;;;4.40;2.10;;;19.50;99.90;;;;;;5053761;28;20209;-88
2022/09/11 07:48:21;;;;;;;3.00;1.90;;;19.40;99.90;;;;;;5056206;28;20196;-87
2022/09/11 07:51:01;;;;;;;2.80;1.55;;;19.40;99.90;;;;;;5054998;28;21236;-86
2022/09/11 07:53:35;;;;;;;2.60;1.20;;;19.30;99.90;;;;;;5054098;28;20699;-86
2022/09/11 07:56:07;;;;;;;3.55;1.15;;;19.20;99.90;;;;;;5050948;28;20251;-88
2022/09/11 07:58:39;;;;;;;2.95;0.88;;;19.10;99.90;;;;;;5049421;28;20212;-87
2022/09/11 08:01:13;;;;;;;3.63;1.17;;;19.10;99.90;;;;;;5056754;28;20196;-89
2022/09/11 08:03:48;;;;;;;2.03;1.20;;;19.00;99.90;;;;;;5058858;28;20201;-86
2022/09/11 08:06:22;;;;;;;5.30;1.70;;;19.00;99.90;;;;;;5053974;28;20200;-86
2022/09/11 08:08:56;;;;;;;5.60;1.20;;;19.00;99.90;;;;;;5052209;28;20231;-86
2022/09/11 08:11:31;;;;;;;3.17;1.38;;;19.00;99.90;;;;;;5050396;28;20346;-86
2022/09/11 08:14:01;;;;;;;5.90;1.33;;;18.90;99.90;;;;;;5051665;28;20215;-86
2022/09/11 08:16:33;;;;;;;2.75;1.23;;;18.80;99.90;;;;;;5052446;28;20246;-87
2022/09/11 08:19:03;;;;;;;3.10;1.15;;;18.80;99.90;;;;;;5052911;28;20213;-87
2022/09/11 08:21:37;;;;;;;3.38;1.23;;;18.80;99.90;;;;;;5052228;28;20215;-82
2022/09/11 08:24:08;;;;;;;3.13;1.23;;;18.70;99.90;;;;;;5047322;28;20224;-84
2022/09/11 08:26:40;;;;;;;3.72;1.20;;;18.60;99.90;;;;;;5052418;28;20196;-82
2022/09/11 08:29:10;;;;;;;3.78;2.03;;;18.60;99.90;;;;;;5045296;28;20204;-80
2022/09/11 08:31:44;;;;;;;5.10;1.70;;;18.50;99.90;;;;;;5045882;28;20850;-79
2022/09/11 08:34:16;;;;;;;3.67;1.95;;;18.50;99.90;;;;;;5049846;28;20192;-82
2022/09/11 08:36:51;;;;;;;4.53;1.92;;;18.40;99.90;;;;;;5048498;28;20225;-82
2022/09/11 08:39:21;;;;;;;4.28;1.65;;;18.40;99.90;;;;;;5046499;28;20740;-83
2022/09/11 08:41:58;;;;;;;4.72;1.80;;;18.40;99.90;;;;;;5046009;28;20206;-82
2022/09/11 08:44:32;;;;;;;4.82;2.42;;;18.30;99.90;;;;;;5047754;28;20203;-82
2022/09/11 08:47:08;;;;;;;4.75;2.40;;;18.30;99.90;;;;;;5048188;28;20200;-83
2022/09/11 08:49:45;;;;;;;3.70;1.90;;;18.30;99.90;;;;;;5047070;28;20228;-83
2022/09/11 08:52:19;;;;;;;2.88;1.67;;;18.30;99.90;;;;;;5045938;28;20204;-83
2022/09/11 08:54:50;;;;;;;3.88;1.65;;;18.30;99.90;;;;;;5047025;28;20199;-83
2022/09/11 08:57:23;;;;;;;4.97;1.95;;;18.30;99.90;;;;;;5047350;28;20212;-83
2022/09/11 09:00:06;;;;;;;4.15;1.85;;;18.30;99.90;;;;;;5045869;28;20220;-87
2022/09/11 09:02:57;;;;;;;3.53;2.15;;;18.30;99.90;;;;;;5049650;28;22287;-86
2022/09/11 09:05:35;;;;;;;5.25;2.00;;;18.20;99.90;;;;;;5054005;28;20212;-87
2022/09/11 09:08:30;;;;;;;4.53;1.70;;;18.20;99.90;;;;;;5049780;28;20199;-85
2022/09/11 09:11:06;;;;;;;4.53;1.40;;;18.10;99.90;;;;;;5051060;28;20197;-83
2022/09/11 09:13:53;;;;;;;1.90;1.23;;;18.10;99.90;;;;;;5049520;28;20291;-86
2022/09/11 09:16:33;;;;;;;5.90;2.70;;;18.00;99.90;;;;;;5048278;28;20221;-84
2022/09/11 09:19:08;;;;;;;4.38;2.50;;;18.00;99.90;;;;;;5046046;28;20219;-83
2022/09/11 09:21:45;;;;;;;6.30;2.97;;;18.00;99.90;;;;;;5046013;28;20653;-83
2022/09/11 09:24:21;;;;;;;4.15;2.40;;;17.90;99.90;;;;;;5043891;28;20277;-83
2022/09/11 09:26:53;;;;;;;4.85;2.15;;;17.90;99.90;;;;;;5047374;28;20203;-85
2022/09/11 09:29:27;;;;;;;4.55;2.10;;;17.90;99.90;;;;;;5047097;28;20237;-84
2022/09/11 09:32:03;;;;;;;3.83;1.90;;;17.90;99.90;;;;;;5049509;28;20674;-85
2022/09/11 09:34:51;;;;;;;3.22;1.73;;;18.00;99.90;;;;;;5071328;28;20202;-88
2022/09/11 09:38:09;;;;;;;5.07;1.50;;;18.00;99.90;;;;;;5066690;28;20224;-86
2022/09/11 09:44:09;;;;;;;3.20;1.48;;;18.20;99.90;;;;;;5003354;28;20204;-87
2022/09/11 09:46:58;;;;;;;5.35;1.95;;;18.20;99.90;;;;;;5070097;28;20255;-89
2022/09/11 09:49:36;;;;;;;3.17;1.65;;;18.30;99.90;;;;;;5066565;28;20253;-84
2022/09/11 09:52:27;;;;;;;4.50;2.05;;;18.20;99.90;;;;;;5059516;28;20199;-82
2022/09/11 09:55:07;;;;;;;4.55;2.17;;;18.30;99.90;;;;;;5061685;28;20196;-80
2022/09/11 09:57:57;;;;;;;4.03;2.13;;;18.30;99.90;;;;;;5057232;28;20201;-80
2022/09/11 10:00:31;;;;;;;3.75;2.53;;;18.20;99.90;;;;;;5055185;28;20255;-84
2022/09/11 10:03:19;;;;;;;5.43;2.78;;;18.20;99.90;;;;;;5057932;28;20203;-79
2022/09/11 10:06:13;;;;;;;5.57;2.72;;;18.20;99.90;;;;;;5054501;28;20333;-86
2022/09/11 10:09:00;;;;;;;5.53;2.90;;;18.10;99.90;;;;;;5058689;28;20204;-84
2022/09/11 10:11:34;;;;;;;2.25;1.65;;;18.10;99.90;;;;;;5060065;28;20218;-84
2022/09/11 10:14:16;;;;;;;5.35;2.35;;;18.00;99.90;;;;;;5058219;28;20217;-84
2022/09/11 10:16:52;;;;;;;4.68;2.67;;;17.90;99.90;;;;;;5060213;28;20207;-84
2022/09/11 10:19:49;;;;;;;3.97;1.70;;;18.00;99.90;;;;;;5057389;28;20204;-85
2022/09/11 10:22:33;;;;;;;3.15;1.70;;;18.00;99.90;;;;;;5062250;28;20192;-84
2022/09/11 10:25:20;;;;;;;5.22;1.50;;;17.90;99.90;;;;;;5058431;28;20295;-85
2022/09/11 10:28:05;;;;;;;3.58;1.70;;;17.90;99.90;;;;;;5064896;28;20247;-85
2022/09/11 10:30:48;;;;;;;4.05;2.03;;;17.90;99.90;;;;;;5059183;28;20228;-85
2022/09/11 10:33:25;;;;;;;5.43;1.77;;;17.80;99.90;;;;;;5056764;28;20199;-84
2022/09/11 10:39:05;;;;;;;3.08;1.35;;;17.70;99.90;;;;;;5054351;28;20721;-85
2022/09/11 10:41:38;;;;;;;2.38;1.20;;;17.70;99.90;;;;;;5062836;28;20207;-85
2022/09/11 10:44:26;;;;;;;2.55;1.10;;;17.70;99.90;;;;;;5059131;28;20566;-85
2022/09/11 10:47:30;;;;;;;1.90;1.40;;;17.60;99.90;;;;;;5058124;28;20613;-85
2022/09/11 10:50:27;;;;;;;2.78;1.05;;;17.60;99.90;;;;;;5053939;28;20204;-86
2022/09/11 10:53:28;;;;;;;4.25;1.00;;;17.60;99.90;;;;;;5056114;28;20197;-84
2022/09/11 10:56:04;;;;;;;2.05;1.20;;;17.50;99.90;;;;;;5048500;28;20200;-83
2022/09/11 10:58:41;;;;;;;2.13;0.95;;;17.50;99.90;;;;;;5050645;28;21660;-84
2022/09/11 11:01:13;;;;;;;3.75;1.13;;;17.50;99.90;;;;;;5052872;28;20302;-85
2022/09/11 11:03:47;;;;;;;3.50;0.80;;;17.50;99.90;;;;;;5054353;28;20191;-84
2022/09/11 11:06:35;;;;;;;2.40;1.05;;;17.40;99.90;;;;;;5051806;28;20231;-84
2022/09/11 11:09:28;;;;;;;3.05;1.20;;;17.40;99.90;;;;;;5046545;28;20270;-84
2022/09/11 11:12:16;;;;;;;2.22;1.10;;;17.20;99.90;;;;;;5051238;28;20200;-83
2022/09/11 11:15:18;;;;;;;2.08;1.00;;;17.20;99.90;;;;;;5056619;28;20606;-85
2022/09/11 11:18:00;;;;;;;2.70;1.20;;;17.20;99.90;;;;;;5048110;28;20289;-85
2022/09/11 11:20:54;;;;;;;2.63;1.00;;;17.10;99.90;;;;;;5060577;28;20429;-85
2022/09/11 11:24:00;;;;;;;3.08;1.38;;;17.00;99.90;;;;;;5053982;28;20197;-84
2022/09/11 11:26:41;;;;;;;1.75;0.90;;;17.00;99.90;;;;;;5058931;28;20195;-84
2022/09/11 11:29:39;;;;;;;2.13;0.98;;;16.80;99.90;;;;;;5054872;28;20203;-84
2022/09/11 11:32:35;;;;;;;1.70;1.00;;;16.80;99.90;;;;;;5057352;28;20564;-82
2022/09/11 11:35:33;;;;;;;2.80;0.90;;;16.70;99.90;;;;;;5067509;28;20656;-84
2022/09/11 11:38:14;;;;;;;2.88;0.90;;;16.80;99.90;;;;;;5056444;28;20196;-84
2022/09/11 11:40:54;;;;;;;2.17;0.90;;;16.70;99.90;;;;;;5060933;28;20235;-84
2022/09/11 11:43:35;;;;;;;2.33;0.88;;;16.80;99.90;;;;;;5063262;28;20191;-86
2022/09/11 11:46:14;;;;;;;2.05;0.85;;;16.70;99.90;;;;;;5061922;28;20565;-85
2022/09/11 11:48:52;;;;;;;3.78;1.00;;;16.60;99.90;;;;;;5062354;28;20689;-85
2022/09/11 11:51:28;;;;;;;2.85;0.82;;;16.60;99.90;;;;;;5064247;28;20203;-85
2022/09/11 11:54:16;;;;;;;2.65;0.80;;;16.60;99.90;;;;;;5067821;28;20203;-86
2022/09/11 11:56:55;;;;;;;1.25;0.70;;;16.60;99.90;;;;;;5066574;28;20230;-84
2022/09/11 11:59:33;;;;;;;2.38;0.93;;;16.60;99.90;;;;;;5056938;28;20293;-84
2022/09/11 12:02:13;;;;;;;3.15;1.00;;;16.60;99.90;;;;;;5059666;28;20206;-84
2022/09/11 12:04:47;;;;;;;3.30;1.70;;;16.50;99.90;;;;;;5058813;28;20311;-83
2022/09/11 12:07:23;;;;;;;2.15;0.90;;;16.50;99.90;;;;;;5052306;28;20192;-85
2022/09/11 12:10:00;;;;;;;2.85;0.80;;;16.40;99.90;;;;;;5055629;28;20701;-84
2022/09/11 12:12:37;;;;;;;4.60;1.30;;;16.40;99.90;;;;;;5054784;28;20203;-84
2022/09/11 12:15:20;;;;;;;2.03;1.08;;;16.30;99.90;;;;;;5056913;28;21951;-84
2022/09/11 12:18:00;;;;;;;2.22;0.73;;;16.10;99.90;;;;;;5047570;28;20683;-84
2022/09/11 12:20:41;;;;;;;3.17;0.75;;;16.10;99.90;;;;;;5048133;28;20250;-84
2022/09/11 12:23:35;;;;;;;1.13;0.68;;;15.90;99.90;;;;;;5064561;28;20219;-84
2022/09/11 12:26:25;;;;;;;2.65;1.08;;;16.00;99.90;;;;;;5067921;28;20196;-83
2022/09/11 12:29:39;;;;;;;1.05;0.52;;;15.90;99.90;;;;;;5060327;28;20672;-83
2022/09/11 12:32:42;;;;;;;1.60;0.60;;;15.90;99.90;;;;;;5060224;28;20196;-83
2022/09/11 12:35:37;;;;;;;2.63;0.80;;;15.80;99.90;;;;;;5072614;28;20273;-83
2022/09/11 12:38:21;;;;;;;2.88;0.88;;;15.80;99.90;;;;;;5053196;28;20196;-82
2022/09/11 12:40:56;;;;;;;2.65;0.70;;;15.80;99.90;;;;;;5043101;28;20223;-82
2022/09/11 12:43:50;;;;;;;3.90;0.80;;;15.70;99.90;;;;;;5049190;28;21941;-82
2022/09/11 12:46:56;;;;;;;1.42;0.77;;;15.50;99.90;;;;;;5049858;28;20547;-82
2022/09/11 12:49:28;;;;;;;2.22;0.68;;;15.60;99.90;;;;;;5047216;28;20208;-83
2022/09/11 12:52:01;;;;;;;1.83;0.73;;;15.50;99.90;;;;;;5049815;28;20263;-84
2022/09/11 12:54:38;;;;;;;3.25;0.70;;;15.50;99.90;;;;;;5050425;28;20578;-85
2022/09/11 12:57:13;;;;;;;1.95;0.70;;;15.50;99.90;;;;;;5052392;28;20301;-84
2022/09/11 12:59:53;;;;;;;3.05;0.70;;;15.50;99.90;;;;;;5052471;28;20255;-84
2022/09/11 13:02:32;;;;;;;1.83;0.75;;;15.50;99.90;;;;;;5049749;28;20199;-83
2022/09/11 13:05:04;;;;;;;3.03;0.77;;;15.40;99.90;;;;;;5053120;28;20201;-84
2022/09/11 13:07:42;;;;;;;2.63;0.80;;;15.40;99.90;;;;;;5051142;28;20213;-84
2022/09/11 13:10:32;;;;;;;2.20;0.73;;;15.40;99.90;;;;;;5053753;28;20195;-84
2022/09/11 13:13:05;;;;;;;3.88;0.80;;;15.30;99.90;;;;;;5050731;28;20228;-84
2022/09/11 13:15:43;;;;;;;3.15;0.80;;;15.30;99.90;;;;;;5051886;28;20257;-82
2022/09/11 13:18:34;;;;;;;2.20;0.80;;;15.30;99.90;;;;;;5051873;28;20308;-83
2022/09/11 13:21:19;;;;;;;3.05;0.60;;;15.30;99.90;;;;;;5052966;28;20228;-84
2022/09/11 13:23:50;;;;;;;3.55;0.70;;;15.20;99.90;;;;;;5053164;28;20239;-83
2022/09/11 13:26:30;;;;;;;4.15;0.73;;;15.10;99.90;;;;;;5052110;28;20438;-82
2022/09/11 13:29:02;;;;;;;3.90;0.85;;;15.10;99.90;;;;;;5051372;28;20211;-84
2022/09/11 13:31:37;;;;;;;3.88;0.80;;;15.10;99.90;;;;;;5050294;28;20219;-82
2022/09/11 13:34:17;;;;;;;1.38;0.65;;;15.00;99.90;;;;;;5050399;28;20195;-83
2022/09/11 13:36:49;;;;;;;3.22;0.88;;;15.00;99.90;;;;;;5049480;28;20579;-82
2022/09/11 13:39:21;;;;;;;1.88;0.80;;;15.00;99.90;;;;;;5049956;28;20251;-83
2022/09/11 13:41:57;;;;;;;3.28;0.93;;;15.00;99.90;;;;;;5052076;28;20678;-82
2022/09/11 13:44:38;;;;;;;2.83;0.70;;;14.90;99.90;;;;;;5052590;28;20194;-82